sensor_id;sensor_type;location;lat;lon;timestamp;P1;durP1;ratioP1;P2;durP2;ratioP2
22468;SDS011;11401;50.792;4.352;2023-03-01T00:01:04;13.13;;;7.70;;
22468;SDS011;11401;50.792;4.352;2023-03-01T00:03:33;15.20;;;8.05;;
22468;SDS011;11401;50.792;4.352;2023-03-01T00:06:01;9.32;;;7.00;;
22468;SDS011;11401;50.792;4.352;2023-03-01T00:08:29;9.10;;;6.82;;
22468;SDS011;11401;50.792;4.352;2023-03-01T00:11:03;9.65;;;7.32;;
22468;SDS011;11401;50.792;4.352;2023-03-01T00:13:30;7.45;;;6.75;;
22468;SDS011;11401;50.792;4.352;2023-03-01T00:15:58;8.15;;;6.93;;
22468;SDS011;11401;50.792;4.352;2023-03-01T00:18:25;9.63;;;7.22;;
22468;SDS011;11401;50.792;4.352;2023-03-01T00:20:52;9.45;;;7.43;;
22468;SDS011;11401;50.792;4.352;2023-03-01T00:23:21;9.07;;;6.90;;
22468;SDS011;11401;50.792;4.352;2023-03-01T00:25:49;9.95;;;7.68;;
22468;SDS011;11401;50.792;4.352;2023-03-01T00:28:17;8.93;;;7.25;;
22468;SDS011;11401;50.792;4.352;2023-03-01T00:30:44;8.65;;;6.70;;
22468;SDS011;11401;50.792;4.352;2023-03-01T00:33:12;7.82;;;7.03;;
22468;SDS011;11401;50.792;4.352;2023-03-01T00:35:39;11.23;;;7.47;;
22468;SDS011;11401;50.792;4.352;2023-03-01T00:38:06;10.18;;;7.50;;
22468;SDS011;11401;50.792;4.352;2023-03-01T00:40:34;9.00;;;7.43;;
22468;SDS011;11401;50.792;4.352;2023-03-01T00:43:02;7.85;;;7.03;;
22468;SDS011;11401;50.792;4.352;2023-03-01T00:45:30;10.77;;;7.20;;
22468;SDS011;11401;50.792;4.352;2023-03-01T00:47:59;9.85;;;7.28;;
22468;SDS011;11401;50.792;4.352;2023-03-01T00:50:26;8.02;;;7.05;;
22468;SDS011;11401;50.792;4.352;2023-03-01T00:52:54;9.73;;;7.82;;
22468;SDS011;11401;50.792;4.352;2023-03-01T00:55:22;7.80;;;7.00;;
22468;SDS011;11401;50.792;4.352;2023-03-01T00:57:50;10.05;;;8.00;;
22468;SDS011;11401;50.792;4.352;2023-03-01T01:00:17;7.78;;;6.90;;
22468;SDS011;11401;50.792;4.352;2023-03-01T01:02:46;7.35;;;6.53;;
22468;SDS011;11401;50.792;4.352;2023-03-01T01:05:13;9.55;;;6.90;;
22468;SDS011;11401;50.792;4.352;2023-03-01T01:07:41;8.10;;;7.30;;
22468;SDS011;11401;50.792;4.352;2023-03-01T01:10:08;10.13;;;7.45;;
22468;SDS011;11401;50.792;4.352;2023-03-01T01:12:39;9.55;;;6.85;;
22468;SDS011;11401;50.792;4.352;2023-03-01T01:15:06;10.60;;;7.07;;
22468;SDS011;11401;50.792;4.352;2023-03-01T01:17:34;10.20;;;6.70;;
22468;SDS011;11401;50.792;4.352;2023-03-01T01:20:01;10.70;;;7.95;;
22468;SDS011;11401;50.792;4.352;2023-03-01T01:22:28;8.82;;;7.32;;
22468;SDS011;11401;50.792;4.352;2023-03-01T01:24:55;7.80;;;6.70;;
22468;SDS011;11401;50.792;4.352;2023-03-01T01:27:23;9.43;;;7.32;;
22468;SDS011;11401;50.792;4.352;2023-03-01T01:29:52;9.07;;;7.47;;
22468;SDS011;11401;50.792;4.352;2023-03-01T01:32:19;7.53;;;6.82;;
22468;SDS011;11401;50.792;4.352;2023-03-01T01:34:46;8.75;;;7.07;;
22468;SDS011;11401;50.792;4.352;2023-03-01T01:37:13;8.65;;;7.45;;
22468;SDS011;11401;50.792;4.352;2023-03-01T01:39:40;7.10;;;6.40;;
22468;SDS011;11401;50.792;4.352;2023-03-01T01:42:17;9.73;;;7.10;;
22468;SDS011;11401;50.792;4.352;2023-03-01T01:44:45;7.30;;;6.60;;
22468;SDS011;11401;50.792;4.352;2023-03-01T01:47:17;8.48;;;7.65;;
22468;SDS011;11401;50.792;4.352;2023-03-01T01:52:18;7.35;;;6.57;;
22468;SDS011;11401;50.792;4.352;2023-03-01T01:57:22;7.70;;;6.90;;
22468;SDS011;11401;50.792;4.352;2023-03-01T02:02:43;8.27;;;7.40;;
22468;SDS011;11401;50.792;4.352;2023-03-01T02:07:43;7.15;;;6.50;;
22468;SDS011;11401;50.792;4.352;2023-03-01T02:10:11;6.53;;;5.90;;
22468;SDS011;11401;50.792;4.352;2023-03-01T02:12:38;9.70;;;6.85;;
22468;SDS011;11401;50.792;4.352;2023-03-01T02:15:06;8.63;;;6.78;;
22468;SDS011;11401;50.792;4.352;2023-03-01T02:17:33;7.88;;;6.35;;
22468;SDS011;11401;50.792;4.352;2023-03-01T02:20:13;7.82;;;7.13;;
22468;SDS011;11401;50.792;4.352;2023-03-01T02:23:01;7.10;;;6.43;;
22468;SDS011;11401;50.792;4.352;2023-03-01T02:25:40;7.53;;;6.25;;
22468;SDS011;11401;50.792;4.352;2023-03-01T02:28:44;7.63;;;6.55;;
22468;SDS011;11401;50.792;4.352;2023-03-01T02:31:14;7.65;;;6.60;;
22468;SDS011;11401;50.792;4.352;2023-03-01T02:34:03;11.07;;;7.45;;
22468;SDS011;11401;50.792;4.352;2023-03-01T02:36:39;8.52;;;6.63;;
22468;SDS011;11401;50.792;4.352;2023-03-01T02:39:35;8.38;;;6.50;;
22468;SDS011;11401;50.792;4.352;2023-03-01T02:42:11;8.48;;;6.55;;
22468;SDS011;11401;50.792;4.352;2023-03-01T02:44:41;9.05;;;6.35;;
22468;SDS011;11401;50.792;4.352;2023-03-01T02:47:08;8.05;;;7.25;;
22468;SDS011;11401;50.792;4.352;2023-03-01T02:49:35;9.05;;;7.03;;
22468;SDS011;11401;50.792;4.352;2023-03-01T02:57:40;7.85;;;6.93;;
22468;SDS011;11401;50.792;4.352;2023-03-01T03:00:11;10.55;;;6.78;;
22468;SDS011;11401;50.792;4.352;2023-03-01T03:02:47;7.95;;;7.15;;
22468;SDS011;11401;50.792;4.352;2023-03-01T03:05:26;7.72;;;6.75;;
22468;SDS011;11401;50.792;4.352;2023-03-01T03:07:57;7.32;;;6.60;;
22468;SDS011;11401;50.792;4.352;2023-03-01T03:10:27;7.15;;;6.05;;
22468;SDS011;11401;50.792;4.352;2023-03-01T03:13:00;9.18;;;6.30;;
22468;SDS011;11401;50.792;4.352;2023-03-01T03:15:31;12.15;;;6.72;;
22468;SDS011;11401;50.792;4.352;2023-03-01T03:18:03;8.13;;;6.70;;
22468;SDS011;11401;50.792;4.352;2023-03-01T03:20:32;8.52;;;6.50;;
22468;SDS011;11401;50.792;4.352;2023-03-01T03:22:59;7.75;;;6.82;;
22468;SDS011;11401;50.792;4.352;2023-03-01T03:25:27;8.48;;;6.60;;
22468;SDS011;11401;50.792;4.352;2023-03-01T03:27:55;7.85;;;6.43;;
22468;SDS011;11401;50.792;4.352;2023-03-01T03:30:30;9.40;;;7.20;;
22468;SDS011;11401;50.792;4.352;2023-03-01T03:32:58;7.53;;;6.50;;
22468;SDS011;11401;50.792;4.352;2023-03-01T03:35:27;8.38;;;7.25;;
22468;SDS011;11401;50.792;4.352;2023-03-01T03:37:59;7.40;;;5.93;;
22468;SDS011;11401;50.792;4.352;2023-03-01T03:40:39;8.55;;;6.53;;
22468;SDS011;11401;50.792;4.352;2023-03-01T03:43:09;7.63;;;6.88;;
22468;SDS011;11401;50.792;4.352;2023-03-01T03:45:38;8.77;;;6.72;;
22468;SDS011;11401;50.792;4.352;2023-03-01T03:48:06;8.02;;;7.05;;
22468;SDS011;11401;50.792;4.352;2023-03-01T03:50:36;9.75;;;6.22;;
22468;SDS011;11401;50.792;4.352;2023-03-01T03:53:09;8.18;;;6.60;;
22468;SDS011;11401;50.792;4.352;2023-03-01T03:55:37;8.57;;;6.80;;
22468;SDS011;11401;50.792;4.352;2023-03-01T03:58:06;7.70;;;6.90;;
22468;SDS011;11401;50.792;4.352;2023-03-01T04:03:11;7.97;;;6.70;;
22468;SDS011;11401;50.792;4.352;2023-03-01T04:05:40;8.52;;;6.72;;
22468;SDS011;11401;50.792;4.352;2023-03-01T04:08:07;7.57;;;6.78;;
22468;SDS011;11401;50.792;4.352;2023-03-01T04:10:36;8.18;;;6.78;;
22468;SDS011;11401;50.792;4.352;2023-03-01T04:13:09;7.10;;;6.10;;
22468;SDS011;11401;50.792;4.352;2023-03-01T04:15:38;8.13;;;6.47;;
22468;SDS011;11401;50.792;4.352;2023-03-01T04:18:06;7.53;;;6.70;;
22468;SDS011;11401;50.792;4.352;2023-03-01T04:20:34;7.63;;;6.70;;
22468;SDS011;11401;50.792;4.352;2023-03-01T04:23:06;7.93;;;6.68;;
22468;SDS011;11401;50.792;4.352;2023-03-01T04:25:40;7.95;;;6.95;;
22468;SDS011;11401;50.792;4.352;2023-03-01T04:28:24;7.10;;;6.22;;
22468;SDS011;11401;50.792;4.352;2023-03-01T04:30:57;9.48;;;7.00;;
22468;SDS011;11401;50.792;4.352;2023-03-01T04:33:25;10.18;;;6.80;;
22468;SDS011;11401;50.792;4.352;2023-03-01T04:35:52;11.57;;;6.60;;
22468;SDS011;11401;50.792;4.352;2023-03-01T04:38:19;8.73;;;6.28;;
22468;SDS011;11401;50.792;4.352;2023-03-01T04:40:47;11.35;;;7.43;;
22468;SDS011;11401;50.792;4.352;2023-03-01T04:43:14;18.85;;;8.40;;
22468;SDS011;11401;50.792;4.352;2023-03-01T04:45:41;9.23;;;7.47;;
22468;SDS011;11401;50.792;4.352;2023-03-01T04:48:09;8.25;;;7.07;;
22468;SDS011;11401;50.792;4.352;2023-03-01T04:50:36;7.47;;;6.15;;
22468;SDS011;11401;50.792;4.352;2023-03-01T04:53:03;8.85;;;6.65;;
22468;SDS011;11401;50.792;4.352;2023-03-01T04:55:30;9.48;;;6.88;;
22468;SDS011;11401;50.792;4.352;2023-03-01T04:57:58;7.05;;;6.35;;
22468;SDS011;11401;50.792;4.352;2023-03-01T05:00:25;8.95;;;6.88;;
22468;SDS011;11401;50.792;4.352;2023-03-01T05:02:56;7.53;;;6.53;;
22468;SDS011;11401;50.792;4.352;2023-03-01T05:07:55;7.68;;;6.85;;
22468;SDS011;11401;50.792;4.352;2023-03-01T05:10:24;13.88;;;6.65;;
22468;SDS011;11401;50.792;4.352;2023-03-01T05:12:55;6.88;;;6.28;;
22468;SDS011;11401;50.792;4.352;2023-03-01T05:15:26;7.38;;;6.30;;
22468;SDS011;11401;50.792;4.352;2023-03-01T05:17:55;6.65;;;6.05;;
22468;SDS011;11401;50.792;4.352;2023-03-01T05:20:26;9.40;;;7.03;;
22468;SDS011;11401;50.792;4.352;2023-03-01T05:22:56;8.85;;;6.93;;
22468;SDS011;11401;50.792;4.352;2023-03-01T05:25:25;7.70;;;6.72;;
22468;SDS011;11401;50.792;4.352;2023-03-01T05:27:53;8.60;;;5.95;;
22468;SDS011;11401;50.792;4.352;2023-03-01T05:30:20;7.97;;;7.07;;
22468;SDS011;11401;50.792;4.352;2023-03-01T05:32:48;6.78;;;6.07;;
22468;SDS011;11401;50.792;4.352;2023-03-01T05:35:22;10.90;;;7.35;;
22468;SDS011;11401;50.792;4.352;2023-03-01T05:37:49;7.03;;;6.30;;
22468;SDS011;11401;50.792;4.352;2023-03-01T05:40:18;8.10;;;6.72;;
22468;SDS011;11401;50.792;4.352;2023-03-01T05:42:48;7.32;;;6.53;;
22468;SDS011;11401;50.792;4.352;2023-03-01T05:45:16;8.50;;;6.80;;
22468;SDS011;11401;50.792;4.352;2023-03-01T05:47:45;7.15;;;6.43;;
22468;SDS011;11401;50.792;4.352;2023-03-01T05:50:14;8.15;;;7.28;;
22468;SDS011;11401;50.792;4.352;2023-03-01T05:53:03;7.30;;;6.60;;
22468;SDS011;11401;50.792;4.352;2023-03-01T05:55:35;7.47;;;6.60;;
22468;SDS011;11401;50.792;4.352;2023-03-01T05:58:04;9.45;;;6.55;;
22468;SDS011;11401;50.792;4.352;2023-03-01T06:00:33;8.68;;;6.60;;
22468;SDS011;11401;50.792;4.352;2023-03-01T06:03:00;8.27;;;6.93;;
22468;SDS011;11401;50.792;4.352;2023-03-01T06:05:28;7.32;;;6.55;;
22468;SDS011;11401;50.792;4.352;2023-03-01T06:07:58;7.88;;;6.35;;
22468;SDS011;11401;50.792;4.352;2023-03-01T06:10:26;10.75;;;6.80;;
22468;SDS011;11401;50.792;4.352;2023-03-01T06:12:53;9.00;;;6.65;;
22468;SDS011;11401;50.792;4.352;2023-03-01T06:15:20;9.40;;;7.03;;
22468;SDS011;11401;50.792;4.352;2023-03-01T06:17:48;8.45;;;6.57;;
22468;SDS011;11401;50.792;4.352;2023-03-01T06:22:44;18.42;;;8.15;;
22468;SDS011;11401;50.792;4.352;2023-03-01T06:25:12;13.48;;;7.45;;
22468;SDS011;11401;50.792;4.352;2023-03-01T06:27:41;13.65;;;7.03;;
22468;SDS011;11401;50.792;4.352;2023-03-01T06:30:09;15.40;;;8.95;;
22468;SDS011;11401;50.792;4.352;2023-03-01T06:32:38;9.07;;;7.63;;
22468;SDS011;11401;50.792;4.352;2023-03-01T06:35:08;8.90;;;7.13;;
22468;SDS011;11401;50.792;4.352;2023-03-01T06:37:40;9.57;;;7.70;;
22468;SDS011;11401;50.792;4.352;2023-03-01T06:40:07;8.32;;;7.32;;
22468;SDS011;11401;50.792;4.352;2023-03-01T06:42:38;10.48;;;6.97;;
22468;SDS011;11401;50.792;4.352;2023-03-01T06:45:07;11.55;;;7.40;;
22468;SDS011;11401;50.792;4.352;2023-03-01T06:47:34;11.23;;;7.65;;
22468;SDS011;11401;50.792;4.352;2023-03-01T06:50:02;10.23;;;7.55;;
22468;SDS011;11401;50.792;4.352;2023-03-01T06:52:30;12.68;;;7.60;;
22468;SDS011;11401;50.792;4.352;2023-03-01T06:54:57;9.90;;;7.57;;
22468;SDS011;11401;50.792;4.352;2023-03-01T06:57:24;12.15;;;6.93;;
22468;SDS011;11401;50.792;4.352;2023-03-01T06:59:51;12.18;;;7.13;;
22468;SDS011;11401;50.792;4.352;2023-03-01T07:02:18;14.57;;;8.20;;
22468;SDS011;11401;50.792;4.352;2023-03-01T07:04:45;10.35;;;7.53;;
22468;SDS011;11401;50.792;4.352;2023-03-01T07:07:12;9.60;;;7.50;;
22468;SDS011;11401;50.792;4.352;2023-03-01T07:09:39;13.32;;;7.88;;
22468;SDS011;11401;50.792;4.352;2023-03-01T07:12:06;9.30;;;7.50;;
22468;SDS011;11401;50.792;4.352;2023-03-01T07:14:34;11.48;;;8.35;;
22468;SDS011;11401;50.792;4.352;2023-03-01T07:17:01;9.25;;;7.35;;
22468;SDS011;11401;50.792;4.352;2023-03-01T07:19:28;8.05;;;7.18;;
22468;SDS011;11401;50.792;4.352;2023-03-01T07:21:55;9.48;;;7.90;;
22468;SDS011;11401;50.792;4.352;2023-03-01T07:24:22;12.10;;;7.85;;
22468;SDS011;11401;50.792;4.352;2023-03-01T07:26:50;12.23;;;7.72;;
22468;SDS011;11401;50.792;4.352;2023-03-01T07:29:18;11.80;;;8.00;;
22468;SDS011;11401;50.792;4.352;2023-03-01T07:31:45;8.88;;;7.20;;
22468;SDS011;11401;50.792;4.352;2023-03-01T07:34:12;10.05;;;8.07;;
22468;SDS011;11401;50.792;4.352;2023-03-01T07:36:40;8.95;;;8.02;;
22468;SDS011;11401;50.792;4.352;2023-03-01T07:39:09;12.75;;;8.27;;
22468;SDS011;11401;50.792;4.352;2023-03-01T07:41:37;10.75;;;8.05;;
22468;SDS011;11401;50.792;4.352;2023-03-01T07:44:04;11.32;;;8.38;;
22468;SDS011;11401;50.792;4.352;2023-03-01T07:46:32;10.23;;;8.13;;
22468;SDS011;11401;50.792;4.352;2023-03-01T07:48:59;9.77;;;7.88;;
22468;SDS011;11401;50.792;4.352;2023-03-01T07:51:26;13.27;;;7.97;;
22468;SDS011;11401;50.792;4.352;2023-03-01T07:53:53;10.70;;;8.82;;
22468;SDS011;11401;50.792;4.352;2023-03-01T07:56:20;10.80;;;8.10;;
22468;SDS011;11401;50.792;4.352;2023-03-01T07:58:48;10.80;;;8.20;;
22468;SDS011;11401;50.792;4.352;2023-03-01T08:01:17;10.90;;;7.80;;
22468;SDS011;11401;50.792;4.352;2023-03-01T08:03:48;11.15;;;8.15;;
22468;SDS011;11401;50.792;4.352;2023-03-01T08:06:16;11.52;;;8.60;;
22468;SDS011;11401;50.792;4.352;2023-03-01T08:08:43;10.75;;;7.70;;
22468;SDS011;11401;50.792;4.352;2023-03-01T08:11:11;12.25;;;9.32;;
22468;SDS011;11401;50.792;4.352;2023-03-01T08:13:41;12.63;;;8.85;;
22468;SDS011;11401;50.792;4.352;2023-03-01T08:16:10;11.63;;;8.35;;
22468;SDS011;11401;50.792;4.352;2023-03-01T08:18:41;18.23;;;9.85;;
22468;SDS011;11401;50.792;4.352;2023-03-01T08:21:11;9.07;;;8.00;;
22468;SDS011;11401;50.792;4.352;2023-03-01T08:23:40;9.65;;;7.43;;
22468;SDS011;11401;50.792;4.352;2023-03-01T08:26:09;14.00;;;8.30;;
22468;SDS011;11401;50.792;4.352;2023-03-01T08:28:40;8.88;;;7.72;;
22468;SDS011;11401;50.792;4.352;2023-03-01T08:31:21;14.63;;;8.45;;
22468;SDS011;11401;50.792;4.352;2023-03-01T08:33:58;11.68;;;7.72;;
22468;SDS011;11401;50.792;4.352;2023-03-01T08:36:27;9.05;;;7.90;;
22468;SDS011;11401;50.792;4.352;2023-03-01T08:38:57;10.57;;;7.30;;
22468;SDS011;11401;50.792;4.352;2023-03-01T08:41:24;9.75;;;8.10;;
22468;SDS011;11401;50.792;4.352;2023-03-01T08:43:51;10.25;;;8.38;;
22468;SDS011;11401;50.792;4.352;2023-03-01T08:46:19;10.52;;;7.82;;
22468;SDS011;11401;50.792;4.352;2023-03-01T08:48:46;12.05;;;8.90;;
22468;SDS011;11401;50.792;4.352;2023-03-01T08:51:14;10.13;;;7.70;;
22468;SDS011;11401;50.792;4.352;2023-03-01T08:53:45;10.68;;;7.47;;
22468;SDS011;11401;50.792;4.352;2023-03-01T08:56:12;9.38;;;7.82;;
22468;SDS011;11401;50.792;4.352;2023-03-01T08:58:43;21.27;;;8.15;;
22468;SDS011;11401;50.792;4.352;2023-03-01T09:01:12;10.05;;;8.30;;
22468;SDS011;11401;50.792;4.352;2023-03-01T09:03:44;10.52;;;7.88;;
22468;SDS011;11401;50.792;4.352;2023-03-01T09:06:11;12.20;;;9.45;;
22468;SDS011;11401;50.792;4.352;2023-03-01T09:08:41;15.50;;;7.72;;
22468;SDS011;11401;50.792;4.352;2023-03-01T09:11:11;8.85;;;7.43;;
22468;SDS011;11401;50.792;4.352;2023-03-01T09:13:39;13.65;;;8.77;;
22468;SDS011;11401;50.792;4.352;2023-03-01T09:16:10;11.38;;;8.70;;
22468;SDS011;11401;50.792;4.352;2023-03-01T09:18:38;15.52;;;9.40;;
22468;SDS011;11401;50.792;4.352;2023-03-01T09:23:34;13.07;;;9.38;;
22468;SDS011;11401;50.792;4.352;2023-03-01T09:26:03;12.45;;;8.63;;
22468;SDS011;11401;50.792;4.352;2023-03-01T09:28:30;12.05;;;9.70;;
22468;SDS011;11401;50.792;4.352;2023-03-01T09:30:58;11.30;;;8.57;;
22468;SDS011;11401;50.792;4.352;2023-03-01T09:33:26;11.15;;;8.70;;
22468;SDS011;11401;50.792;4.352;2023-03-01T09:36:05;8.38;;;7.53;;
22468;SDS011;11401;50.792;4.352;2023-03-01T09:38:33;14.73;;;9.32;;
22468;SDS011;11401;50.792;4.352;2023-03-01T09:41:00;10.68;;;8.43;;
22468;SDS011;11401;50.792;4.352;2023-03-01T09:46:11;12.00;;;8.90;;
22468;SDS011;11401;50.792;4.352;2023-03-01T09:48:44;14.57;;;9.10;;
22468;SDS011;11401;50.792;4.352;2023-03-01T09:54:20;9.82;;;8.77;;
22468;SDS011;11401;50.792;4.352;2023-03-01T09:56:53;9.70;;;8.48;;
22468;SDS011;11401;50.792;4.352;2023-03-01T10:11:19;14.35;;;9.00;;
22468;SDS011;11401;50.792;4.352;2023-03-01T10:19:12;12.98;;;8.38;;
22468;SDS011;11401;50.792;4.352;2023-03-01T10:21:46;15.90;;;9.10;;
22468;SDS011;11401;50.792;4.352;2023-03-01T10:24:15;10.32;;;8.38;;
22468;SDS011;11401;50.792;4.352;2023-03-01T10:26:58;10.15;;;7.85;;
22468;SDS011;11401;50.792;4.352;2023-03-01T10:29:35;9.57;;;8.13;;
22468;SDS011;11401;50.792;4.352;2023-03-01T10:32:11;10.85;;;9.35;;
22468;SDS011;11401;50.792;4.352;2023-03-01T10:34:38;13.25;;;8.88;;
22468;SDS011;11401;50.792;4.352;2023-03-01T10:37:16;13.75;;;8.85;;
22468;SDS011;11401;50.792;4.352;2023-03-01T10:42:38;11.77;;;8.95;;
22468;SDS011;11401;50.792;4.352;2023-03-01T10:50:44;10.55;;;8.65;;
22468;SDS011;11401;50.792;4.352;2023-03-01T10:53:22;12.45;;;8.88;;
22468;SDS011;11401;50.792;4.352;2023-03-01T10:56:06;15.05;;;9.65;;
22468;SDS011;11401;50.792;4.352;2023-03-01T10:58:35;10.90;;;8.20;;
22468;SDS011;11401;50.792;4.352;2023-03-01T11:03:43;12.18;;;8.00;;
22468;SDS011;11401;50.792;4.352;2023-03-01T11:08:48;10.50;;;8.82;;
22468;SDS011;11401;50.792;4.352;2023-03-01T11:11:18;13.35;;;9.13;;
22468;SDS011;11401;50.792;4.352;2023-03-01T11:13:59;11.50;;;8.60;;
22468;SDS011;11401;50.792;4.352;2023-03-01T11:17:00;10.27;;;8.38;;
22468;SDS011;11401;50.792;4.352;2023-03-01T11:19:31;12.60;;;8.27;;
22468;SDS011;11401;50.792;4.352;2023-03-01T11:22:00;12.95;;;8.23;;
22468;SDS011;11401;50.792;4.352;2023-03-01T11:24:33;11.30;;;8.65;;
22468;SDS011;11401;50.792;4.352;2023-03-01T11:27:08;13.07;;;8.13;;
22468;SDS011;11401;50.792;4.352;2023-03-01T11:29:45;11.30;;;8.98;;
22468;SDS011;11401;50.792;4.352;2023-03-01T11:32:23;10.85;;;7.47;;
22468;SDS011;11401;50.792;4.352;2023-03-01T11:35:05;9.48;;;7.88;;
22468;SDS011;11401;50.792;4.352;2023-03-01T11:40:34;11.05;;;8.25;;
22468;SDS011;11401;50.792;4.352;2023-03-01T11:57:51;11.02;;;7.57;;
22468;SDS011;11401;50.792;4.352;2023-03-01T12:06:34;12.48;;;7.55;;
22468;SDS011;11401;50.792;4.352;2023-03-01T12:11:42;15.15;;;7.97;;
22468;SDS011;11401;50.792;4.352;2023-03-01T12:17:32;11.27;;;8.27;;
22468;SDS011;11401;50.792;4.352;2023-03-01T12:20:15;12.40;;;7.85;;
22468;SDS011;11401;50.792;4.352;2023-03-01T12:34:49;7.47;;;6.78;;
22468;SDS011;11401;50.792;4.352;2023-03-01T12:42:41;8.15;;;6.50;;
22468;SDS011;11401;50.792;4.352;2023-03-01T12:51:01;7.80;;;7.00;;
22468;SDS011;11401;50.792;4.352;2023-03-01T12:53:32;8.57;;;6.50;;
22468;SDS011;11401;50.792;4.352;2023-03-01T12:56:05;10.50;;;7.60;;
22468;SDS011;11401;50.792;4.352;2023-03-01T12:58:43;8.30;;;7.22;;
22468;SDS011;11401;50.792;4.352;2023-03-01T13:01:28;10.05;;;7.22;;
22468;SDS011;11401;50.792;4.352;2023-03-01T13:04:51;13.52;;;7.28;;
22468;SDS011;11401;50.792;4.352;2023-03-01T13:20:29;8.20;;;6.47;;
22468;SDS011;11401;50.792;4.352;2023-03-01T13:23:11;6.63;;;5.82;;
22468;SDS011;11401;50.792;4.352;2023-03-01T13:49:59;11.32;;;6.90;;
22468;SDS011;11401;50.792;4.352;2023-03-01T13:52:38;11.55;;;7.82;;
22468;SDS011;11401;50.792;4.352;2023-03-01T13:57:41;10.95;;;7.72;;
22468;SDS011;11401;50.792;4.352;2023-03-01T14:00:27;15.10;;;8.98;;
22468;SDS011;11401;50.792;4.352;2023-03-01T14:03:01;10.00;;;7.30;;
22468;SDS011;11401;50.792;4.352;2023-03-01T14:05:32;11.45;;;6.88;;
22468;SDS011;11401;50.792;4.352;2023-03-01T14:08:05;12.80;;;7.80;;
22468;SDS011;11401;50.792;4.352;2023-03-01T14:13:54;8.85;;;7.25;;
22468;SDS011;11401;50.792;4.352;2023-03-01T14:19:08;8.20;;;6.28;;
22468;SDS011;11401;50.792;4.352;2023-03-01T14:22:00;8.50;;;6.68;;
22468;SDS011;11401;50.792;4.352;2023-03-01T14:24:38;9.18;;;7.40;;
22468;SDS011;11401;50.792;4.352;2023-03-01T14:27:11;7.75;;;6.18;;
22468;SDS011;11401;50.792;4.352;2023-03-01T14:29:40;10.75;;;8.05;;
22468;SDS011;11401;50.792;4.352;2023-03-01T14:34:56;10.73;;;7.68;;
22468;SDS011;11401;50.792;4.352;2023-03-01T14:39:56;8.20;;;6.47;;
22468;SDS011;11401;50.792;4.352;2023-03-01T14:42:25;9.40;;;7.20;;
22468;SDS011;11401;50.792;4.352;2023-03-01T14:44:55;15.05;;;7.82;;
22468;SDS011;11401;50.792;4.352;2023-03-01T14:47:34;9.32;;;7.07;;
22468;SDS011;11401;50.792;4.352;2023-03-01T14:50:21;10.95;;;8.13;;
22468;SDS011;11401;50.792;4.352;2023-03-01T14:53:19;11.10;;;8.02;;
22468;SDS011;11401;50.792;4.352;2023-03-01T14:55:53;13.38;;;7.90;;
22468;SDS011;11401;50.792;4.352;2023-03-01T14:58:23;10.65;;;8.15;;
22468;SDS011;11401;50.792;4.352;2023-03-01T15:00:59;7.78;;;6.57;;
22468;SDS011;11401;50.792;4.352;2023-03-01T15:03:35;9.05;;;7.43;;
22468;SDS011;11401;50.792;4.352;2023-03-01T15:06:08;9.43;;;6.90;;
22468;SDS011;11401;50.792;4.352;2023-03-01T15:08:36;11.02;;;8.57;;
22468;SDS011;11401;50.792;4.352;2023-03-01T15:13:40;8.10;;;6.57;;
22468;SDS011;11401;50.792;4.352;2023-03-01T15:16:11;9.00;;;7.70;;
22468;SDS011;11401;50.792;4.352;2023-03-01T15:18:48;7.88;;;7.05;;
22468;SDS011;11401;50.792;4.352;2023-03-01T15:21:33;9.27;;;7.47;;
22468;SDS011;11401;50.792;4.352;2023-03-01T15:24:05;9.43;;;7.47;;
22468;SDS011;11401;50.792;4.352;2023-03-01T15:26:49;10.52;;;8.50;;
22468;SDS011;11401;50.792;4.352;2023-03-01T15:29:25;13.27;;;8.35;;
22468;SDS011;11401;50.792;4.352;2023-03-01T15:31:58;10.63;;;8.50;;
22468;SDS011;11401;50.792;4.352;2023-03-01T15:34:27;10.93;;;7.88;;
22468;SDS011;11401;50.792;4.352;2023-03-01T15:36:57;8.18;;;6.28;;
22468;SDS011;11401;50.792;4.352;2023-03-01T15:41:54;13.50;;;8.05;;
22468;SDS011;11401;50.792;4.352;2023-03-01T15:47:22;7.95;;;6.70;;
22468;SDS011;11401;50.792;4.352;2023-03-01T15:49:54;12.43;;;7.15;;
22468;SDS011;11401;50.792;4.352;2023-03-01T15:52:34;13.25;;;8.43;;
22468;SDS011;11401;50.792;4.352;2023-03-01T15:55:06;11.35;;;7.60;;
22468;SDS011;11401;50.792;4.352;2023-03-01T15:57:47;9.20;;;7.20;;
22468;SDS011;11401;50.792;4.352;2023-03-01T16:00:14;9.25;;;6.93;;
22468;SDS011;11401;50.792;4.352;2023-03-01T16:02:44;9.02;;;6.75;;
22468;SDS011;11401;50.792;4.352;2023-03-01T16:05:45;9.13;;;7.68;;
22468;SDS011;11401;50.792;4.352;2023-03-01T16:08:05;9.55;;;7.72;;
22468;SDS011;11401;50.792;4.352;2023-03-01T16:10:33;13.10;;;7.30;;
22468;SDS011;11401;50.792;4.352;2023-03-01T16:13:01;15.07;;;7.38;;
22468;SDS011;11401;50.792;4.352;2023-03-01T16:15:29;8.60;;;7.05;;
22468;SDS011;11401;50.792;4.352;2023-03-01T16:17:58;9.50;;;7.10;;
22468;SDS011;11401;50.792;4.352;2023-03-01T16:20:25;19.33;;;10.73;;
22468;SDS011;11401;50.792;4.352;2023-03-01T16:23:00;12.13;;;8.02;;
22468;SDS011;11401;50.792;4.352;2023-03-01T16:25:28;8.07;;;7.20;;
22468;SDS011;11401;50.792;4.352;2023-03-01T16:27:56;8.00;;;7.00;;
22468;SDS011;11401;50.792;4.352;2023-03-01T16:30:24;7.38;;;6.43;;
22468;SDS011;11401;50.792;4.352;2023-03-01T16:32:52;8.18;;;6.88;;
22468;SDS011;11401;50.792;4.352;2023-03-01T16:35:20;7.47;;;6.63;;
22468;SDS011;11401;50.792;4.352;2023-03-01T16:37:48;11.85;;;7.30;;
22468;SDS011;11401;50.792;4.352;2023-03-01T16:40:16;10.40;;;7.15;;
22468;SDS011;11401;50.792;4.352;2023-03-01T16:42:50;13.05;;;8.35;;
22468;SDS011;11401;50.792;4.352;2023-03-01T16:45:17;14.77;;;8.80;;
22468;SDS011;11401;50.792;4.352;2023-03-01T16:47:51;9.13;;;7.32;;
22468;SDS011;11401;50.792;4.352;2023-03-01T16:50:21;12.77;;;7.75;;
22468;SDS011;11401;50.792;4.352;2023-03-01T16:52:49;14.60;;;7.80;;
22468;SDS011;11401;50.792;4.352;2023-03-01T16:55:16;10.30;;;6.72;;
22468;SDS011;11401;50.792;4.352;2023-03-01T16:57:43;8.70;;;7.68;;
22468;SDS011;11401;50.792;4.352;2023-03-01T17:00:11;12.18;;;7.85;;
22468;SDS011;11401;50.792;4.352;2023-03-01T17:02:40;11.93;;;7.88;;
22468;SDS011;11401;50.792;4.352;2023-03-01T17:05:08;7.05;;;6.25;;
22468;SDS011;11401;50.792;4.352;2023-03-01T17:07:37;11.32;;;6.35;;
22468;SDS011;11401;50.792;4.352;2023-03-01T17:10:06;8.70;;;6.90;;
22468;SDS011;11401;50.792;4.352;2023-03-01T17:12:34;8.63;;;6.68;;
22468;SDS011;11401;50.792;4.352;2023-03-01T17:15:03;10.65;;;6.47;;
22468;SDS011;11401;50.792;4.352;2023-03-01T17:17:31;10.35;;;7.03;;
22468;SDS011;11401;50.792;4.352;2023-03-01T17:19:58;9.77;;;7.07;;
22468;SDS011;11401;50.792;4.352;2023-03-01T17:22:27;9.25;;;6.80;;
22468;SDS011;11401;50.792;4.352;2023-03-01T17:24:54;9.52;;;7.18;;
22468;SDS011;11401;50.792;4.352;2023-03-01T17:27:21;11.95;;;8.10;;
22468;SDS011;11401;50.792;4.352;2023-03-01T17:29:50;10.35;;;7.25;;
22468;SDS011;11401;50.792;4.352;2023-03-01T17:32:17;12.95;;;6.82;;
22468;SDS011;11401;50.792;4.352;2023-03-01T17:34:47;12.18;;;7.50;;
22468;SDS011;11401;50.792;4.352;2023-03-01T17:37:16;11.75;;;7.82;;
22468;SDS011;11401;50.792;4.352;2023-03-01T17:39:43;16.20;;;7.57;;
22468;SDS011;11401;50.792;4.352;2023-03-01T17:42:10;14.02;;;7.55;;
22468;SDS011;11401;50.792;4.352;2023-03-01T17:44:38;12.63;;;7.75;;
22468;SDS011;11401;50.792;4.352;2023-03-01T17:47:08;9.55;;;7.30;;
22468;SDS011;11401;50.792;4.352;2023-03-01T17:49:35;9.88;;;8.00;;
22468;SDS011;11401;50.792;4.352;2023-03-01T17:52:02;10.75;;;7.72;;
22468;SDS011;11401;50.792;4.352;2023-03-01T17:54:30;11.65;;;8.00;;
22468;SDS011;11401;50.792;4.352;2023-03-01T17:56:59;14.90;;;7.55;;